Time;durP1;ratioP1;P1;durP2;ratioP2;P2;SDS_P1;SDS_P2;PMS_P1;PMS_P2;Temp;Humidity;BMP_temperature;BMP_pressure;BME280_temperature;BME280_humidity;BME280_pressure;Samples;Min_cycle;Max_cycle;Signal;HPM_P1;HPM_P2
2022/07/13 00:02:18;;;;;;;1.92;1.05;;;;;;;;;;5051387;28;20045;-41
2022/07/13 00:04:44;;;;;;;2.28;1.30;;;;;;;;;;5051426;28;20036;-41
2022/07/13 00:07:09;;;;;;;2.25;0.98;;;;;;;;;;5051651;28;20075;-41
2022/07/13 00:09:35;;;;;;;2.75;0.95;;;;;;;;;;5051775;28;20074;-41
2022/07/13 00:12:00;;;;;;;1.42;0.95;;;;;;;;;;5051139;28;20025;-41
2022/07/13 00:14:26;;;;;;;2.28;1.10;;;;;;;;;;5049931;28;20039;-40
2022/07/13 00:16:51;;;;;;;3.33;1.40;;;;;;;;;;5051364;28;20040;-41
2022/07/13 00:19:16;;;;;;;1.15;0.98;;;;;;;;;;5051317;28;20043;-42
2022/07/13 00:21:42;;;;;;;1.50;1.17;;;;;;;;;;5051521;28;20032;-40
2022/07/13 00:24:07;;;;;;;2.25;1.25;;;;;;;;;;5051290;28;20360;-42
2022/07/13 00:26:32;;;;;;;1.83;1.25;;;;;;;;;;5051224;28;20028;-40
2022/07/13 00:28:58;;;;;;;2.50;1.30;;;;;;;;;;5051253;28;20074;-40
2022/07/13 00:31:23;;;;;;;2.42;1.50;;;;;;;;;;5049942;28;20021;-41
2022/07/13 00:33:49;;;;;;;1.98;1.15;;;;;;;;;;5051470;28;20184;-42
2022/07/13 00:36:15;;;;;;;2.15;1.67;;;;;;;;;;5051379;28;20474;-42
2022/07/13 00:38:40;;;;;;;2.03;1.08;;;;;;;;;;5049965;28;20078;-41
2022/07/13 00:41:05;;;;;;;1.13;0.95;;;;;;;;;;5051056;28;20032;-41
2022/07/13 00:43:31;;;;;;;3.05;1.52;;;;;;;;;;5049931;28;20198;-40
2022/07/13 00:45:56;;;;;;;2.83;1.25;;;;;;;;;;5051138;28;20017;-40
2022/07/13 00:48:22;;;;;;;3.92;1.30;;;;;;;;;;5051014;28;20035;-41
2022/07/13 00:50:48;;;;;;;1.98;1.25;;;;;;;;;;5049799;28;20028;-41
2022/07/13 00:53:13;;;;;;;1.63;1.50;;;;;;;;;;5050958;28;20071;-41
2022/07/13 00:55:39;;;;;;;4.35;1.33;;;;;;;;;;5049669;28;20064;-41
2022/07/13 00:58:07;;;;;;;5.82;1.17;;;;;;;;;;5049641;28;20044;-42
2022/07/13 01:00:32;;;;;;;1.75;1.05;;;;;;;;;;5049626;28;20021;-41
2022/07/13 01:02:58;;;;;;;1.17;1.08;;;;;;;;;;5049680;28;20412;-42
2022/07/13 01:05:23;;;;;;;1.30;1.13;;;;;;;;;;5049684;28;20541;-40
2022/07/13 01:07:49;;;;;;;3.20;1.35;;;;;;;;;;5050924;28;20033;-41
2022/07/13 01:10:15;;;;;;;1.48;1.38;;;;;;;;;;5050844;28;20463;-40
2022/07/13 01:12:41;;;;;;;2.75;1.30;;;;;;;;;;5050856;28;20048;-41
2022/07/13 01:15:06;;;;;;;2.25;1.13;;;;;;;;;;5050588;28;20060;-40
2022/07/13 01:17:34;;;;;;;1.52;1.38;;;;;;;;;;5049681;28;20409;-41
2022/07/13 01:20:00;;;;;;;2.85;1.20;;;;;;;;;;5050790;28;20040;-40
2022/07/13 01:22:29;;;;;;;2.00;1.15;;;;;;;;;;5049700;28;20037;-40
2022/07/13 01:24:54;;;;;;;1.35;0.93;;;;;;;;;;5054456;28;20052;-41
2022/07/13 01:27:20;;;;;;;1.30;1.20;;;;;;;;;;5054368;28;20056;-41
2022/07/13 01:29:45;;;;;;;1.77;1.15;;;;;;;;;;5054351;28;20017;-41
2022/07/13 01:32:10;;;;;;;4.55;1.38;;;;;;;;;;5054218;28;20112;-41
2022/07/13 01:34:36;;;;;;;1.65;1.15;;;;;;;;;;5054605;28;20013;-42
2022/07/13 01:37:01;;;;;;;1.33;1.20;;;;;;;;;;5054031;28;20479;-40
2022/07/13 01:39:27;;;;;;;2.42;1.45;;;;;;;;;;5054158;28;20123;-41
2022/07/13 01:41:52;;;;;;;3.13;1.58;;;;;;;;;;5054087;28;20040;-40
2022/07/13 01:44:18;;;;;;;10.50;2.10;;;;;;;;;;5052717;28;20048;-42
2022/07/13 01:46:43;;;;;;;2.33;1.67;;;;;;;;;;5054083;28;20122;-40
2022/07/13 01:49:09;;;;;;;1.30;1.13;;;;;;;;;;5052618;28;20044;-42
2022/07/13 01:51:36;;;;;;;4.10;1.33;;;;;;;;;;5052578;28;20506;-42
2022/07/13 01:54:02;;;;;;;2.42;1.35;;;;;;;;;;5053781;28;20025;-41
2022/07/13 01:56:27;;;;;;;1.13;1.02;;;;;;;;;;5052521;28;20052;-42
2022/07/13 01:58:52;;;;;;;10.40;2.08;;;;;;;;;;5052434;28;20103;-42
2022/07/13 02:01:18;;;;;;;5.75;1.23;;;;;;;;;;5053656;28;20035;-41
2022/07/13 02:03:46;;;;;;;2.30;1.38;;;;;;;;;;5052458;28;20067;-41
2022/07/13 02:06:11;;;;;;;1.88;1.67;;;;;;;;;;5052229;28;20036;-39
2022/07/13 02:08:37;;;;;;;5.85;1.30;;;;;;;;;;5053668;28;20059;-41
2022/07/13 02:11:04;;;;;;;1.48;1.13;;;;;;;;;;5052226;28;20079;-40
2022/07/13 02:13:30;;;;;;;4.45;1.88;;;;;;;;;;5053447;28;20467;-41
2022/07/13 02:15:55;;;;;;;2.38;1.30;;;;;;;;;;5053247;28;20048;-41
2022/07/13 02:18:21;;;;;;;2.17;1.38;;;;;;;;;;5052070;28;20079;-41
2022/07/13 02:20:46;;;;;;;1.48;1.30;;;;;;;;;;5052065;28;20142;-41
2022/07/13 02:23:12;;;;;;;4.57;1.10;;;;;;;;;;5053321;28;20116;-40
2022/07/13 02:25:37;;;;;;;1.92;1.10;;;;;;;;;;5051958;28;20044;-40
2022/07/13 02:28:07;;;;;;;3.55;1.42;;;;;;;;;;5051916;28;20020;-40
2022/07/13 02:30:33;;;;;;;1.38;1.10;;;;;;;;;;5053170;28;20033;-41
2022/07/13 02:32:59;;;;;;;1.85;1.27;;;;;;;;;;5051837;28;20067;-41
2022/07/13 02:35:25;;;;;;;1.13;0.85;;;;;;;;;;5051730;28;20418;-41
2022/07/13 02:37:50;;;;;;;2.53;1.02;;;;;;;;;;5051728;28;20057;-41
2022/07/13 02:40:16;;;;;;;1.10;1.00;;;;;;;;;;5052875;28;20032;-40
2022/07/13 02:42:42;;;;;;;2.33;1.02;;;;;;;;;;5051717;28;20028;-41
2022/07/13 02:45:07;;;;;;;3.28;1.55;;;;;;;;;;5051589;28;20072;-40
2022/07/13 02:47:33;;;;;;;2.10;1.20;;;;;;;;;;5051569;28;20104;-41
2022/07/13 02:50:00;;;;;;;2.85;1.35;;;;;;;;;;5051533;28;20024;-41
2022/07/13 02:52:25;;;;;;;2.20;1.15;;;;;;;;;;5052793;28;20478;-40
2022/07/13 02:54:51;;;;;;;3.00;1.45;;;;;;;;;;5051308;28;20382;-40
2022/07/13 02:57:17;;;;;;;1.55;1.27;;;;;;;;;;5051313;28;20089;-41
2022/07/13 02:59:49;;;;;;;2.33;1.50;;;;;;;;;;5051410;28;20029;-41
2022/07/13 03:02:17;;;;;;;1.27;1.17;;;;;;;;;;5052523;28;20064;-41
2022/07/13 03:04:42;;;;;;;4.22;0.95;;;;;;;;;;5051238;28;20119;-42
2022/07/13 03:07:08;;;;;;;2.33;1.58;;;;;;;;;;5051200;28;20510;-40
2022/07/13 03:09:33;;;;;;;1.23;1.15;;;;;;;;;;5051128;28;20021;-41
2022/07/13 03:11:59;;;;;;;1.88;1.30;;;;;;;;;;5051087;28;20364;-40
2022/07/13 03:14:24;;;;;;;4.65;1.40;;;;;;;;;;5050834;28;20485;-41
2022/07/13 03:16:50;;;;;;;1.50;1.25;;;;;;;;;;5050964;28;20045;-41
2022/07/13 03:19:15;;;;;;;1.80;1.10;;;;;;;;;;5050917;28;20379;-41
2022/07/13 03:21:41;;;;;;;1.02;1.00;;;;;;;;;;5052449;28;20028;-40
2022/07/13 03:24:06;;;;;;;1.10;0.80;;;;;;;;;;5050785;28;20530;-40
2022/07/13 03:26:32;;;;;;;1.48;1.30;;;;;;;;;;5052153;28;20540;-41
2022/07/13 03:28:57;;;;;;;1.45;1.35;;;;;;;;;;5034311;28;20021;-40
2022/07/13 03:31:23;;;;;;;4.65;1.10;;;;;;;;;;5050608;28;20025;-42
2022/07/13 03:33:49;;;;;;;1.70;1.20;;;;;;;;;;5050769;28;20021;-40
2022/07/13 03:36:15;;;;;;;1.33;1.02;;;;;;;;;;5051832;28;20550;-40
2022/07/13 03:38:41;;;;;;;1.30;1.20;;;;;;;;;;5050539;28;20124;-41
2022/07/13 03:41:07;;;;;;;2.45;1.13;;;;;;;;;;5050522;28;20033;-41
2022/07/13 03:43:32;;;;;;;3.63;1.33;;;;;;;;;;5050568;28;20455;-40
2022/07/13 03:45:57;;;;;;;4.97;1.60;;;;;;;;;;5051321;28;20044;-40
2022/07/13 03:48:23;;;;;;;1.50;1.27;;;;;;;;;;5051742;28;20028;-41
2022/07/13 03:50:48;;;;;;;1.27;1.17;;;;;;;;;;5050423;28;20037;-42
2022/07/13 03:53:14;;;;;;;0.95;0.95;;;;;;;;;;5050125;28;20025;-41
2022/07/13 03:55:43;;;;;;;3.40;1.42;;;;;;;;;;5051583;28;20063;-40
2022/07/13 03:58:10;;;;;;;2.38;0.90;;;;;;;;;;5050222;28;20025;-42
2022/07/13 04:00:37;;;;;;;2.13;1.10;;;;;;;;;;5051794;28;20422;-41
2022/07/13 04:03:04;;;;;;;3.72;1.20;;;;;;;;;;5050222;28;20028;-40
2022/07/13 04:05:30;;;;;;;1.38;1.27;;;;;;;;;;5050186;28;20060;-40
2022/07/13 04:07:55;;;;;;;1.20;0.85;;;;;;;;;;5051522;28;20110;-41
2022/07/13 04:10:21;;;;;;;2.95;1.35;;;;;;;;;;5050050;28;20043;-42
2022/07/13 04:12:48;;;;;;;1.60;1.50;;;;;;;;;;5050147;28;20104;-40
2022/07/13 04:15:15;;;;;;;1.65;1.05;;;;;;;;;;5049813;28;20048;-40
2022/07/13 04:17:41;;;;;;;1.27;1.17;;;;;;;;;;5050155;28;20028;-42
2022/07/13 04:20:07;;;;;;;2.50;1.13;;;;;;;;;;5049968;28;20032;-41
2022/07/13 04:22:33;;;;;;;1.63;1.10;;;;;;;;;;5050092;28;20070;-40
2022/07/13 04:24:59;;;;;;;1.48;1.17;;;;;;;;;;5050080;28;20032;-40
2022/07/13 04:27:25;;;;;;;4.28;0.90;;;;;;;;;;5049971;28;20129;-41
2022/07/13 04:29:52;;;;;;;7.72;1.38;;;;;;;;;;5049944;28;20051;-40
2022/07/13 04:32:18;;;;;;;2.83;1.23;;;;;;;;;;5049976;28;20021;-41
2022/07/13 04:34:43;;;;;;;1.48;1.00;;;;;;;;;;5049878;28;20024;-40
2022/07/13 04:37:09;;;;;;;2.67;1.55;;;;;;;;;;5049763;28;20544;-41
2022/07/13 04:39:35;;;;;;;2.22;1.83;;;;;;;;;;5049961;28;20047;-41
2022/07/13 04:42:00;;;;;;;2.50;1.33;;;;;;;;;;5051109;28;20016;-41
2022/07/13 04:44:26;;;;;;;3.35;1.23;;;;;;;;;;5049833;28;20032;-41
2022/07/13 04:46:52;;;;;;;2.28;1.42;;;;;;;;;;5049821;28;20017;-41
2022/07/13 04:49:19;;;;;;;3.70;1.17;;;;;;;;;;5049719;28;20136;-40
2022/07/13 04:51:45;;;;;;;1.33;1.15;;;;;;;;;;5049822;28;20462;-40
2022/07/13 04:54:11;;;;;;;3.95;1.40;;;;;;;;;;5049722;28;20025;-42
2022/07/13 04:56:36;;;;;;;1.17;1.08;;;;;;;;;;5049654;28;20039;-41
2022/07/13 04:59:02;;;;;;;1.27;1.10;;;;;;;;;;5052667;28;20032;-40
2022/07/13 05:01:27;;;;;;;1.25;1.13;;;;;;;;;;5053510;28;20363;-41
2022/07/13 05:04:00;;;;;;;2.65;1.33;;;;;;;;;;5053480;28;20048;-41
2022/07/13 05:06:26;;;;;;;2.92;1.08;;;;;;;;;;5053419;28;20033;-41
2022/07/13 05:08:53;;;;;;;1.77;1.20;;;;;;;;;;5053498;28;20024;-40
2022/07/13 05:11:18;;;;;;;2.35;1.15;;;;;;;;;;5053281;28;20032;-40
2022/07/13 05:13:45;;;;;;;5.75;1.55;;;;;;;;;;5053378;28;20024;-41
2022/07/13 05:16:11;;;;;;;3.28;1.00;;;;;;;;;;5053064;28;20041;-42
2022/07/13 05:18:37;;;;;;;1.40;1.30;;;;;;;;;;5053492;28;20036;-41
2022/07/13 05:21:07;;;;;;;3.58;1.40;;;;;;;;;;5053140;28;20032;-41
2022/07/13 05:23:33;;;;;;;2.28;0.95;;;;;;;;;;5053140;28;20032;-40
2022/07/13 05:25:59;;;;;;;1.40;0.98;;;;;;;;;;5053133;28;20029;-40
2022/07/13 05:28:24;;;;;;;1.55;1.00;;;;;;;;;;5053096;28;20017;-43
2022/07/13 05:30:51;;;;;;;1.80;1.10;;;;;;;;;;5052982;28;20391;-41
2022/07/13 05:33:20;;;;;;;1.88;1.48;;;;;;;;;;5053003;28;20020;-41
2022/07/13 05:35:46;;;;;;;1.65;1.48;;;;;;;;;;5052902;28;20039;-41
2022/07/13 05:38:14;;;;;;;1.98;1.50;;;;;;;;;;5054104;28;20029;-41
2022/07/13 05:40:39;;;;;;;1.90;1.50;;;;;;;;;;5052854;28;20116;-40
2022/07/13 05:43:06;;;;;;;3.33;1.23;;;;;;;;;;5052732;28;20427;-39
2022/07/13 05:45:32;;;;;;;1.38;0.93;;;;;;;;;;5054106;28;20039;-41
2022/07/13 05:47:57;;;;;;;4.03;1.63;;;;;;;;;;5052998;28;20032;-40
2022/07/13 05:50:23;;;;;;;1.95;1.08;;;;;;;;;;5054123;28;20478;-41
2022/07/13 05:52:52;;;;;;;1.70;1.48;;;;;;;;;;5052664;28;20024;-40
2022/07/13 05:55:21;;;;;;;3.08;1.20;;;;;;;;;;5052416;28;20044;-40
2022/07/13 05:57:46;;;;;;;1.42;1.17;;;;;;;;;;5053919;28;20020;-41
2022/07/13 06:00:13;;;;;;;1.52;1.00;;;;;;;;;;5053915;28;20383;-42
2022/07/13 06:02:39;;;;;;;1.58;1.08;;;;;;;;;;5052446;28;20348;-41
2022/07/13 06:05:05;;;;;;;1.40;0.95;;;;;;;;;;5053941;28;20035;-41
2022/07/13 06:07:31;;;;;;;3.75;1.52;;;;;;;;;;5053640;28;20100;-41
2022/07/13 06:09:58;;;;;;;1.20;0.90;;;;;;;;;;5053509;28;20174;-41
2022/07/13 06:12:27;;;;;;;1.40;1.10;;;;;;;;;;5053508;28;20043;-40
2022/07/13 06:14:53;;;;;;;1.50;1.20;;;;;;;;;;5053238;28;20053;-41
2022/07/13 06:17:19;;;;;;;1.00;0.88;;;;;;;;;;5053639;28;20041;-40
2022/07/13 06:19:44;;;;;;;2.45;1.27;;;;;;;;;;5053630;28;20032;-42
2022/07/13 06:22:10;;;;;;;1.42;1.30;;;;;;;;;;5053442;28;20115;-39
2022/07/13 06:24:36;;;;;;;4.70;1.83;;;;;;;;;;5053246;28;20036;-40
2022/07/13 06:27:01;;;;;;;2.05;1.00;;;;;;;;;;5053273;28;20382;-40
2022/07/13 06:29:27;;;;;;;1.13;1.02;;;;;;;;;;5053376;28;20048;-40
2022/07/13 06:31:53;;;;;;;1.40;0.65;;;;;;;;;;5053121;28;20075;-41
2022/07/13 06:34:19;;;;;;;0.82;0.82;;;;;;;;;;5053127;28;20390;-41
2022/07/13 06:36:44;;;;;;;3.05;1.27;;;;;;;;;;5052880;28;20029;-41
2022/07/13 06:39:10;;;;;;;2.92;1.08;;;;;;;;;;5052969;28;20037;-41
2022/07/13 06:41:35;;;;;;;4.72;1.13;;;;;;;;;;5052994;28;20045;-39
2022/07/13 06:44:01;;;;;;;0.98;0.88;;;;;;;;;;5052844;28;20490;-39
2022/07/13 06:46:30;;;;;;;2.28;0.70;;;;;;;;;;5053154;28;20025;-41
2022/07/13 06:48:56;;;;;;;2.63;1.08;;;;;;;;;;5051522;28;20024;-42
2022/07/13 06:51:24;;;;;;;3.72;0.93;;;;;;;;;;5052614;28;20021;-41
2022/07/13 06:53:50;;;;;;;0.95;0.80;;;;;;;;;;5053125;28;20035;-41
2022/07/13 06:56:16;;;;;;;2.58;0.98;;;;;;;;;;5052428;28;20386;-41
2022/07/13 06:58:43;;;;;;;3.00;1.02;;;;;;;;;;5052660;28;20032;-42
2022/07/13 07:01:09;;;;;;;0.90;0.88;;;;;;;;;;5052395;28;20021;-41
2022/07/13 07:03:35;;;;;;;1.40;1.10;;;;;;;;;;5051295;28;20032;-41
2022/07/13 07:06:00;;;;;;;1.23;0.68;;;;;;;;;;5052796;28;20410;-41
2022/07/13 07:08:26;;;;;;;3.38;1.08;;;;;;;;;;5052181;28;20107;-42
2022/07/13 07:10:52;;;;;;;2.22;1.08;;;;;;;;;;5050939;28;20055;-41
2022/07/13 07:13:17;;;;;;;3.25;0.85;;;;;;;;;;5052297;28;20534;-41
2022/07/13 07:15:48;;;;;;;4.15;0.82;;;;;;;;;;5052084;28;20049;-40
2022/07/13 07:18:17;;;;;;;1.48;0.95;;;;;;;;;;5052163;28;20029;-41
2022/07/13 07:20:43;;;;;;;2.55;0.90;;;;;;;;;;5051623;28;20041;-41
2022/07/13 07:23:09;;;;;;;1.05;0.95;;;;;;;;;;5052123;28;20025;-41
2022/07/13 07:25:35;;;;;;;1.25;1.10;;;;;;;;;;5052324;28;20032;-41
2022/07/13 07:28:02;;;;;;;1.33;1.10;;;;;;;;;;5052170;28;20021;-42
2022/07/13 07:30:27;;;;;;;1.98;1.10;;;;;;;;;;5051968;28;20025;-41
2022/07/13 07:32:54;;;;;;;1.33;1.02;;;;;;;;;;5051670;28;20040;-40
2022/07/13 07:35:19;;;;;;;1.10;1.00;;;;;;;;;;5050941;28;20025;-40
2022/07/13 07:37:45;;;;;;;2.08;0.98;;;;;;;;;;5051839;28;20041;-40
2022/07/13 07:40:11;;;;;;;2.80;1.05;;;;;;;;;;5051343;28;20497;-41
2022/07/13 07:42:36;;;;;;;1.20;0.80;;;;;;;;;;5051858;28;20045;-40
2022/07/13 07:45:03;;;;;;;1.33;0.82;;;;;;;;;;5050848;28;20021;-41
2022/07/13 07:47:29;;;;;;;1.00;0.88;;;;;;;;;;5051863;28;20044;-42
2022/07/13 07:49:54;;;;;;;1.00;0.90;;;;;;;;;;5051697;28;20046;-40
2022/07/13 07:52:20;;;;;;;3.05;1.13;;;;;;;;;;5050414;28;20033;-43
2022/07/13 07:54:48;;;;;;;1.00;0.82;;;;;;;;;;5051680;28;20024;-42
2022/07/13 07:57:14;;;;;;;2.15;1.40;;;;;;;;;;5051469;28;20037;-41
2022/07/13 07:59:41;;;;;;;1.00;0.82;;;;;;;;;;5051805;28;20013;-42
2022/07/13 08:02:07;;;;;;;1.27;0.80;;;;;;;;;;5051339;28;20206;-42
2022/07/13 08:04:32;;;;;;;2.85;0.80;;;;;;;;;;5050599;28;20574;-42
2022/07/13 08:06:58;;;;;;;0.75;0.68;;;;;;;;;;5051776;28;20154;-42
2022/07/13 08:09:23;;;;;;;2.20;1.15;;;;;;;;;;5051294;28;20485;-42
2022/07/13 08:11:49;;;;;;;2.33;1.25;;;;;;;;;;5051585;28;20112;-40
2022/07/13 08:14:15;;;;;;;1.75;1.00;;;;;;;;;;5051398;28;20025;-41
2022/07/13 08:16:40;;;;;;;2.17;0.88;;;;;;;;;;5051057;28;20057;-42
2022/07/13 08:19:06;;;;;;;2.03;1.40;;;;;;;;;;5051405;28;20036;-41
2022/07/13 08:21:31;;;;;;;1.33;0.93;;;;;;;;;;5051263;28;20442;-41
2022/07/13 08:23:57;;;;;;;3.80;0.93;;;;;;;;;;5051261;28;20021;-41
2022/07/13 08:26:27;;;;;;;0.80;0.80;;;;;;;;;;5051502;28;20033;-43
2022/07/13 08:28:54;;;;;;;2.00;1.25;;;;;;;;;;5051431;28;20025;-42
2022/07/13 08:31:21;;;;;;;1.52;1.13;;;;;;;;;;5051553;28;20059;-42
2022/07/13 08:39:17;;;;;;;0.80;0.80;;;;;;;;;;5055524;28;20394;-42
2022/07/13 08:41:43;;;;;;;1.20;1.10;;;;;;;;;;5055223;28;20032;-42
2022/07/13 08:44:09;;;;;;;0.77;0.68;;;;;;;;;;5055116;28;20029;-42
2022/07/13 08:46:34;;;;;;;2.72;1.08;;;;;;;;;;5054057;28;20025;-42
2022/07/13 08:49:00;;;;;;;3.55;1.08;;;;;;;;;;5055045;28;20040;-42
2022/07/13 08:51:26;;;;;;;1.77;1.02;;;;;;;;;;5054940;28;20024;-41
2022/07/13 08:53:53;;;;;;;3.40;0.80;;;;;;;;;;5055026;28;20029;-41
2022/07/13 08:56:19;;;;;;;6.65;1.00;;;;;;;;;;5054736;28;20380;-43
2022/07/13 08:58:45;;;;;;;0.98;0.88;;;;;;;;;;5054819;28;20021;-42
2022/07/13 09:01:11;;;;;;;1.23;1.10;;;;;;;;;;5054667;28;20017;-40
2022/07/13 09:03:37;;;;;;;1.48;1.00;;;;;;;;;;5054955;28;20104;-43
2022/07/13 09:06:03;;;;;;;0.65;0.57;;;;;;;;;;5054764;28;20105;-41
2022/07/13 09:08:28;;;;;;;2.30;1.10;;;;;;;;;;5054576;28;20086;-42
2022/07/13 09:10:55;;;;;;;2.97;0.93;;;;;;;;;;5054959;28;20024;-42
2022/07/13 09:13:40;;;;;;;0.75;0.75;;;;;;;;;;5054420;28;20111;-42
2022/07/13 09:16:11;;;;;;;1.25;0.95;;;;;;;;;;5054458;28;20123;-42
2022/07/13 09:18:37;;;;;;;1.88;1.10;;;;;;;;;;5054696;28;20029;-43
2022/07/13 09:21:03;;;;;;;1.02;0.88;;;;;;;;;;5054752;28;20024;-43
2022/07/13 09:23:29;;;;;;;1.30;1.05;;;;;;;;;;5054790;28;20033;-42
2022/07/13 09:25:55;;;;;;;2.00;1.15;;;;;;;;;;5054398;28;20017;-41
2022/07/13 09:28:21;;;;;;;1.05;0.98;;;;;;;;;;5054323;28;20068;-42
2022/07/13 09:30:47;;;;;;;4.15;1.10;;;;;;;;;;5054481;28;20057;-43
2022/07/13 09:33:12;;;;;;;2.05;0.95;;;;;;;;;;5054218;28;20039;-42
2022/07/13 09:35:49;;;;;;;3.40;1.00;;;;;;;;;;5054196;28;20021;-41
2022/07/13 09:38:27;;;;;;;1.05;1.00;;;;;;;;;;5054135;28;20064;-42
2022/07/13 09:40:53;;;;;;;4.50;1.30;;;;;;;;;;5054240;28;20017;-42
2022/07/13 09:46:11;;;;;;;1.88;1.15;;;;;;;;;;5053829;28;20048;-43
2022/07/13 09:48:38;;;;;;;2.25;1.08;;;;;;;;;;5054005;28;20025;-42
2022/07/13 09:51:07;;;;;;;1.75;1.60;;;;;;;;;;5053891;28;20523;-43
2022/07/13 09:53:33;;;;;;;3.63;1.33;;;;;;;;;;5053925;28;20033;-42
2022/07/13 09:56:00;;;;;;;2.38;1.70;;;;;;;;;;5053731;28;20314;-42
2022/07/13 09:58:29;;;;;;;4.57;1.20;;;;;;;;;;5053744;28;20039;-41
2022/07/13 10:00:56;;;;;;;3.00;1.50;;;;;;;;;;5054019;28;20013;-41
2022/07/13 10:03:23;;;;;;;3.58;1.50;;;;;;;;;;5052612;28;20039;-42
2022/07/13 10:05:50;;;;;;;2.08;1.50;;;;;;;;;;5053717;28;20021;-42
2022/07/13 10:08:19;;;;;;;1.90;1.52;;;;;;;;;;5053514;28;20028;-42
2022/07/13 10:10:46;;;;;;;2.88;1.70;;;;;;;;;;5053496;28;20409;-41
2022/07/13 10:13:12;;;;;;;2.20;1.40;;;;;;;;;;5053439;28;20032;-42
2022/07/13 10:15:39;;;;;;;2.08;1.83;;;;;;;;;;5052039;28;20049;-43
2022/07/13 10:18:07;;;;;;;2.83;1.00;;;;;;;;;;5053794;28;20037;-42
2022/07/13 10:20:36;;;;;;;1.92;1.60;;;;;;;;;;5053277;28;20108;-43
2022/07/13 10:23:01;;;;;;;3.42;2.05;;;;;;;;;;5053623;28;20124;-42
2022/07/13 10:25:40;;;;;;;1.75;1.58;;;;;;;;;;5052088;28;20104;-42
2022/07/13 10:28:08;;;;;;;2.65;1.70;;;;;;;;;;5053654;28;20443;-43
2022/07/13 10:30:34;;;;;;;3.72;1.77;;;;;;;;;;5053150;28;20021;-42
2022/07/13 10:33:19;;;;;;;6.97;1.58;;;;;;;;;;5053212;28;20029;-43
2022/07/13 10:35:49;;;;;;;2.33;2.08;;;;;;;;;;5053037;28;20086;-44
2022/07/13 10:38:22;;;;;;;2.42;1.60;;;;;;;;;;5051735;28;20048;-41
2022/07/13 10:40:49;;;;;;;6.30;1.60;;;;;;;;;;5052940;28;20068;-42
2022/07/13 10:43:15;;;;;;;3.70;2.00;;;;;;;;;;5052884;28;20058;-40
2022/07/13 10:45:45;;;;;;;4.03;1.60;;;;;;;;;;5052847;28;20040;-41
2022/07/13 10:48:17;;;;;;;1.60;1.50;;;;;;;;;;5052824;28;20045;-41
2022/07/13 10:50:47;;;;;;;2.78;2.10;;;;;;;;;;5052870;28;20634;-41
2022/07/13 10:53:18;;;;;;;2.13;1.50;;;;;;;;;;5052680;28;20067;-41
2022/07/13 10:55:47;;;;;;;3.00;2.03;;;;;;;;;;5051615;28;20028;-42
2022/07/13 10:58:32;;;;;;;1.40;1.20;;;;;;;;;;5052527;28;20024;-41
2022/07/13 11:01:07;;;;;;;3.03;1.73;;;;;;;;;;5052608;28;20103;-42
2022/07/13 11:03:43;;;;;;;3.20;1.80;;;;;;;;;;5051284;28;20064;-42
2022/07/13 11:06:17;;;;;;;2.30;1.60;;;;;;;;;;5051300;28;20360;-43
2022/07/13 11:08:43;;;;;;;1.52;1.33;;;;;;;;;;5052395;28;20494;-41
2022/07/13 11:11:16;;;;;;;1.38;1.05;;;;;;;;;;5052237;28;20021;-42
2022/07/13 11:13:44;;;;;;;2.97;1.50;;;;;;;;;;5052271;28;20033;-41
2022/07/13 11:16:10;;;;;;;3.38;1.77;;;;;;;;;;5050861;28;20057;-42
2022/07/13 11:18:37;;;;;;;11.60;2.13;;;;;;;;;;5052269;28;20032;-42
2022/07/13 11:21:10;;;;;;;1.30;1.20;;;;;;;;;;5052168;28;20091;-41
2022/07/13 11:26:35;;;;;;;2.17;1.98;;;;;;;;;;5050863;28;20032;-42
2022/07/13 11:29:08;;;;;;;1.48;1.20;;;;;;;;;;5052318;28;20021;-41
2022/07/13 11:31:34;;;;;;;3.88;1.67;;;;;;;;;;5051984;28;20067;-43
2022/07/13 11:34:00;;;;;;;1.35;1.25;;;;;;;;;;5052216;28;20029;-42
2022/07/13 11:36:27;;;;;;;2.03;1.40;;;;;;;;;;5051854;28;20033;-43
2022/07/13 11:38:52;;;;;;;1.30;1.20;;;;;;;;;;5052255;28;20370;-42
2022/07/13 11:41:21;;;;;;;1.45;1.35;;;;;;;;;;5051981;28;20108;-42
2022/07/13 11:43:50;;;;;;;2.63;1.50;;;;;;;;;;5052168;28;20033;-41
2022/07/13 11:46:25;;;;;;;1.50;1.40;;;;;;;;;;5051844;28;20029;-42
2022/07/13 11:48:57;;;;;;;3.13;1.55;;;;;;;;;;5051755;28;20029;-42
2022/07/13 11:51:23;;;;;;;1.53;1.40;;;;;;;;;;5050375;28;20033;-45
2022/07/13 11:53:48;;;;;;;1.25;1.15;;;;;;;;;;5051696;28;20253;-42
2022/07/13 11:56:14;;;;;;;2.67;1.50;;;;;;;;;;5051393;28;20074;-44
2022/07/13 11:58:45;;;;;;;3.47;1.48;;;;;;;;;;5051889;28;20028;-41
2022/07/13 12:01:12;;;;;;;1.77;1.48;;;;;;;;;;5051465;28;20075;-43
2022/07/13 12:03:38;;;;;;;2.13;1.35;;;;;;;;;;5051554;28;20779;-43
2022/07/13 12:06:05;;;;;;;1.60;1.42;;;;;;;;;;5051399;28;20037;-43
2022/07/13 12:08:33;;;;;;;4.82;1.35;;;;;;;;;;5051232;28;20020;-42
2022/07/13 12:10:59;;;;;;;1.67;1.58;;;;;;;;;;5051385;28;20037;-42
2022/07/13 12:13:25;;;;;;;3.05;1.33;;;;;;;;;;5051376;28;20467;-41
2022/07/13 12:15:51;;;;;;;2.63;1.52;;;;;;;;;;5051150;28;20086;-41
2022/07/13 12:18:19;;;;;;;1.48;1.38;;;;;;;;;;5051258;28;20053;-42
2022/07/13 12:20:44;;;;;;;1.63;1.35;;;;;;;;;;5051613;28;20076;-42
2022/07/13 12:23:11;;;;;;;1.45;1.20;;;;;;;;;;5051612;28;20055;-42
2022/07/13 12:25:38;;;;;;;1.70;1.50;;;;;;;;;;5051214;28;20082;-44
2022/07/13 12:28:04;;;;;;;1.95;1.20;;;;;;;;;;5051380;28;20064;-43
2022/07/13 12:30:33;;;;;;;1.52;1.42;;;;;;;;;;5051217;28;20040;-44
2022/07/13 12:33:02;;;;;;;2.03;1.73;;;;;;;;;;5051461;28;20048;-43
2022/07/13 12:35:29;;;;;;;3.35;2.45;;;;;;;;;;5051154;28;20017;-42
2022/07/13 12:37:56;;;;;;;1.60;1.50;;;;;;;;;;5051404;28;20439;-43
2022/07/13 12:40:55;;;;;;;4.15;2.40;;;;;;;;;;5051055;28;20024;-43
2022/07/13 12:43:20;;;;;;;2.38;1.17;;;;;;;;;;5049668;28;20041;-43
2022/07/13 12:45:50;;;;;;;2.17;1.70;;;;;;;;;;5051040;28;20024;-41
2022/07/13 12:48:21;;;;;;;14.23;1.92;;;;;;;;;;5049808;28;20056;-42
2022/07/13 12:51:13;;;;;;;2.03;1.42;;;;;;;;;;5051009;28;20047;-43
2022/07/13 12:53:53;;;;;;;1.88;1.70;;;;;;;;;;5050760;28;20051;-42
2022/07/13 12:56:19;;;;;;;3.22;1.38;;;;;;;;;;5051093;28;20037;-42
2022/07/13 12:58:49;;;;;;;1.52;1.40;;;;;;;;;;5051031;28;20445;-42
2022/07/13 13:01:29;;;;;;;1.65;1.33;;;;;;;;;;5051070;28;20036;-42
2022/07/13 13:03:55;;;;;;;2.13;1.17;;;;;;;;;;5051040;28;20078;-43
2022/07/13 13:06:21;;;;;;;10.60;1.40;;;;;;;;;;5050795;28;20017;-43
2022/07/13 13:08:46;;;;;;;2.92;2.05;;;;;;;;;;5050884;28;20387;-43
2022/07/13 13:11:12;;;;;;;1.83;1.35;;;;;;;;;;5051059;28;20103;-43
2022/07/13 13:13:37;;;;;;;1.63;1.52;;;;;;;;;;5050765;28;20041;-43
2022/07/13 13:16:03;;;;;;;1.48;1.30;;;;;;;;;;5050534;28;20048;-44
2022/07/13 13:18:28;;;;;;;1.27;1.17;;;;;;;;;;5051335;28;20048;-43
2022/07/13 13:20:54;;;;;;;1.65;1.35;;;;;;;;;;5053539;28;20600;-43
2022/07/13 13:23:19;;;;;;;2.50;1.52;;;;;;;;;;5054728;28;20463;-43
2022/07/13 13:25:45;;;;;;;1.98;1.45;;;;;;;;;;5054430;28;20017;-42
2022/07/13 13:28:11;;;;;;;1.42;1.33;;;;;;;;;;5053389;28;20033;-42
2022/07/13 13:30:45;;;;;;;1.40;1.10;;;;;;;;;;5054298;28;20167;-42
2022/07/13 13:33:12;;;;;;;2.75;1.30;;;;;;;;;;5054516;28;20064;-43
2022/07/13 13:35:38;;;;;;;1.80;1.13;;;;;;;;;;5054501;28;20033;-43
2022/07/13 13:38:03;;;;;;;3.08;1.10;;;;;;;;;;5054232;28;20443;-41
2022/07/13 13:40:29;;;;;;;1.73;1.20;;;;;;;;;;5054414;28;20027;-42
2022/07/13 13:42:54;;;;;;;1.67;1.25;;;;;;;;;;5054345;28;20471;-42
2022/07/13 13:45:20;;;;;;;4.90;1.30;;;;;;;;;;5054064;28;20463;-42
2022/07/13 13:47:45;;;;;;;1.60;1.02;;;;;;;;;;5052814;28;20032;-42
2022/07/13 13:50:10;;;;;;;3.40;1.23;;;;;;;;;;5053753;28;20023;-42
2022/07/13 13:52:36;;;;;;;1.20;1.02;;;;;;;;;;5054009;28;20035;-42
2022/07/13 13:55:02;;;;;;;1.27;1.13;;;;;;;;;;5054148;28;20017;-42
2022/07/13 13:57:27;;;;;;;2.13;1.00;;;;;;;;;;5053655;28;20071;-42
2022/07/13 13:59:53;;;;;;;2.22;1.20;;;;;;;;;;5053810;28;20024;-44
2022/07/13 14:02:18;;;;;;;3.55;1.17;;;;;;;;;;5053722;28;20037;-42
2022/07/13 14:04:44;;;;;;;1.20;0.90;;;;;;;;;;5053869;28;20029;-42
2022/07/13 14:07:10;;;;;;;1.02;0.98;;;;;;;;;;5053720;28;20025;-43
2022/07/13 14:09:35;;;;;;;0.95;0.88;;;;;;;;;;5053796;28;20021;-43
2022/07/13 14:12:01;;;;;;;2.03;1.45;;;;;;;;;;5053636;28;20470;-43
2022/07/13 14:14:26;;;;;;;1.10;1.00;;;;;;;;;;5053362;28;20044;-42
2022/07/13 14:16:54;;;;;;;1.02;0.93;;;;;;;;;;5053681;28;20111;-43
2022/07/13 14:19:23;;;;;;;5.95;1.52;;;;;;;;;;5053224;28;20036;-42
2022/07/13 14:21:49;;;;;;;1.20;0.88;;;;;;;;;;5053731;28;20382;-43
2022/07/13 14:24:14;;;;;;;4.00;1.00;;;;;;;;;;5053873;28;20021;-43
2022/07/13 14:26:39;;;;;;;0.70;0.70;;;;;;;;;;5053230;28;20494;-43
2022/07/13 14:29:05;;;;;;;1.23;0.82;;;;;;;;;;5053330;28;20020;-42
2022/07/13 14:31:30;;;;;;;1.20;1.08;;;;;;;;;;5053246;28;20455;-42
2022/07/13 14:33:56;;;;;;;2.70;0.90;;;;;;;;;;5051844;28;20041;-42
2022/07/13 14:36:24;;;;;;;1.20;1.10;;;;;;;;;;5053047;28;20043;-42
2022/07/13 14:38:51;;;;;;;1.30;1.20;;;;;;;;;;5053007;28;20017;-42
2022/07/13 14:41:16;;;;;;;7.13;1.40;;;;;;;;;;5052877;28;20029;-42
2022/07/13 14:43:42;;;;;;;1.52;1.40;;;;;;;;;;5052971;28;20028;-43
2022/07/13 14:46:07;;;;;;;1.20;1.10;;;;;;;;;;5052738;28;20032;-42
2022/07/13 14:48:33;;;;;;;2.75;1.63;;;;;;;;;;5052901;28;20116;-42
2022/07/13 14:50:59;;;;;;;1.67;1.58;;;;;;;;;;5053073;28;20422;-43
2022/07/13 14:53:24;;;;;;;1.60;1.10;;;;;;;;;;5052744;28;20475;-42